sensor_id;sensor_type;location;lat;lon;timestamp;noise_LAeq;noise_LA_min;noise_LA_max;noise_LA01;noise_LA95
67300;Laerm;57658;51.436;5.980;2023-05-10T00:00:01;40.36;35.12;61.42;;
67300;Laerm;57658;51.436;5.980;2023-05-10T00:00:12;55.49;35.65;70.57;;
67300;Laerm;57658;51.436;5.980;2023-05-10T00:00:23;37.21;35.57;48.80;;
67300;Laerm;57658;51.436;5.980;2023-05-10T00:00:33;36.91;35.49;46.40;;
67300;Laerm;57658;51.436;5.980;2023-05-10T00:00:44;36.97;35.43;42.25;;
67300;Laerm;57658;51.436;5.980;2023-05-10T00:00:54;37.42;35.49;54.06;;
67300;Laerm;57658;51.436;5.980;2023-05-10T00:01:04;37.13;35.23;44.35;;
67300;Laerm;57658;51.436;5.980;2023-05-10T00:01:14;37.48;35.98;41.37;;
67300;Laerm;57658;51.436;5.980;2023-05-10T00:01:25;38.72;36.50;56.46;;
67300;Laerm;57658;51.436;5.980;2023-05-10T00:01:35;37.66;35.81;45.21;;
67300;Laerm;57658;51.436;5.980;2023-05-10T00:01:45;38.16;36.06;49.97;;
67300;Laerm;57658;51.436;5.980;2023-05-10T00:01:55;62.74;36.33;80.52;;
67300;Laerm;57658;51.436;5.980;2023-05-10T00:02:06;76.28;69.44;82.40;;
67300;Laerm;57658;51.436;5.980;2023-05-10T00:02:16;70.76;51.50;81.41;;
67300;Laerm;57658;51.436;5.980;2023-05-10T00:02:26;56.93;52.12;59.44;;
67300;Laerm;57658;51.436;5.980;2023-05-10T00:02:37;56.16;52.12;58.49;;
67300;Laerm;57658;51.436;5.980;2023-05-10T00:02:47;61.10;52.85;71.25;;
67300;Laerm;57658;51.436;5.980;2023-05-10T00:02:58;84.41;71.61;91.09;;
67300;Laerm;57658;51.436;5.980;2023-05-10T00:03:08;84.86;79.92;90.35;;
67300;Laerm;57658;51.436;5.980;2023-05-10T00:03:18;88.03;73.28;97.99;;
67300;Laerm;57658;51.436;5.980;2023-05-10T00:03:29;64.89;51.78;76.15;;
67300;Laerm;57658;51.436;5.980;2023-05-10T00:03:39;49.18;44.22;54.18;;
67300;Laerm;57658;51.436;5.980;2023-05-10T00:03:50;42.68;38.07;59.43;;
67300;Laerm;57658;51.436;5.980;2023-05-10T00:04:00;39.85;35.44;60.02;;
67300;Laerm;57658;51.436;5.980;2023-05-10T00:04:10;36.26;34.72;41.35;;
67300;Laerm;57658;51.436;5.980;2023-05-10T00:04:21;36.23;34.69;42.46;;
67300;Laerm;57658;51.436;5.980;2023-05-10T00:04:31;36.69;35.27;40.95;;
67300;Laerm;57658;51.436;5.980;2023-05-10T00:04:41;37.75;35.63;50.29;;
67300;Laerm;57658;51.436;5.980;2023-05-10T00:04:52;36.87;34.52;52.84;;
67300;Laerm;57658;51.436;5.980;2023-05-10T00:05:02;37.12;34.64;55.51;;
67300;Laerm;57658;51.436;5.980;2023-05-10T00:05:12;36.65;34.40;52.73;;
67300;Laerm;57658;51.436;5.980;2023-05-10T00:05:23;35.90;34.44;41.93;;
67300;Laerm;57658;51.436;5.980;2023-05-10T00:05:33;36.16;34.60;43.39;;
67300;Laerm;57658;51.436;5.980;2023-05-10T00:05:43;36.35;34.60;45.16;;
67300;Laerm;57658;51.436;5.980;2023-05-10T00:05:53;36.37;34.90;42.67;;
67300;Laerm;57658;51.436;5.980;2023-05-10T00:06:04;37.12;34.53;52.57;;
67300;Laerm;57658;51.436;5.980;2023-05-10T00:06:14;35.61;33.78;40.65;;
67300;Laerm;57658;51.436;5.980;2023-05-10T00:06:25;35.99;34.19;43.94;;
67300;Laerm;57658;51.436;5.980;2023-05-10T00:06:35;35.84;34.36;46.43;;
67300;Laerm;57658;51.436;5.980;2023-05-10T00:06:46;35.52;33.84;41.32;;
67300;Laerm;57658;51.436;5.980;2023-05-10T00:06:56;36.21;34.22;47.34;;
67300;Laerm;57658;51.436;5.980;2023-05-10T00:07:06;35.67;34.14;40.33;;
67300;Laerm;57658;51.436;5.980;2023-05-10T00:07:16;37.06;34.05;56.61;;
67300;Laerm;57658;51.436;5.980;2023-05-10T00:07:27;71.09;34.21;81.27;;
67300;Laerm;57658;51.436;5.980;2023-05-10T00:07:37;76.19;63.19;82.17;;
67300;Laerm;57658;51.436;5.980;2023-05-10T00:07:48;56.77;51.66;61.97;;
67300;Laerm;57658;51.436;5.980;2023-05-10T00:07:58;56.25;49.94;58.87;;
67300;Laerm;57658;51.436;5.980;2023-05-10T00:08:08;56.20;49.97;58.95;;
67300;Laerm;57658;51.436;5.980;2023-05-10T00:08:19;62.01;50.65;73.37;;
67300;Laerm;57658;51.436;5.980;2023-05-10T00:08:29;81.06;73.88;85.67;;
67300;Laerm;57658;51.436;5.980;2023-05-10T00:08:39;81.29;77.51;86.54;;
67300;Laerm;57658;51.436;5.980;2023-05-10T00:08:49;78.70;63.34;82.70;;
67300;Laerm;57658;51.436;5.980;2023-05-10T00:09:00;59.82;48.06;65.58;;
67300;Laerm;57658;51.436;5.980;2023-05-10T00:09:10;47.02;42.37;53.58;;
67300;Laerm;57658;51.436;5.980;2023-05-10T00:09:21;43.40;41.00;46.18;;
67300;Laerm;57658;51.436;5.980;2023-05-10T00:09:31;39.88;36.45;54.40;;
67300;Laerm;57658;51.436;5.980;2023-05-10T00:09:41;37.34;35.95;45.14;;
67300;Laerm;57658;51.436;5.980;2023-05-10T00:09:51;36.61;34.65;41.99;;
67300;Laerm;57658;51.436;5.980;2023-05-10T00:10:02;36.17;34.82;41.78;;
67300;Laerm;57658;51.436;5.980;2023-05-10T00:10:12;36.37;35.11;41.26;;
67300;Laerm;57658;51.436;5.980;2023-05-10T00:10:23;35.57;34.09;40.21;;
67300;Laerm;57658;51.436;5.980;2023-05-10T00:10:33;35.40;33.88;40.54;;
67300;Laerm;57658;51.436;5.980;2023-05-10T00:10:43;35.37;33.99;43.50;;
67300;Laerm;57658;51.436;5.980;2023-05-10T00:10:53;35.32;33.68;41.75;;
67300;Laerm;57658;51.436;5.980;2023-05-10T00:11:04;35.31;33.48;46.48;;
67300;Laerm;57658;51.436;5.980;2023-05-10T00:11:14;35.42;33.60;41.27;;
67300;Laerm;57658;51.436;5.980;2023-05-10T00:11:24;35.50;33.57;39.62;;
67300;Laerm;57658;51.436;5.980;2023-05-10T00:11:34;35.33;34.06;39.02;;
67300;Laerm;57658;51.436;5.980;2023-05-10T00:11:45;36.64;34.24;49.75;;
67300;Laerm;57658;51.436;5.980;2023-05-10T00:11:55;36.54;34.73;41.56;;
67300;Laerm;57658;51.436;5.980;2023-05-10T00:12:08;35.75;33.38;41.46;;
67300;Laerm;57658;51.436;5.980;2023-05-10T00:12:19;34.91;33.52;40.80;;
67300;Laerm;57658;51.436;5.980;2023-05-10T00:12:29;35.83;34.18;40.24;;
67300;Laerm;57658;51.436;5.980;2023-05-10T00:12:39;35.32;33.64;42.01;;
67300;Laerm;57658;51.436;5.980;2023-05-10T00:12:49;34.89;33.50;40.44;;
67300;Laerm;57658;51.436;5.980;2023-05-10T00:13:00;35.42;33.93;40.37;;
67300;Laerm;57658;51.436;5.980;2023-05-10T00:13:10;35.62;34.21;41.61;;
67300;Laerm;57658;51.436;5.980;2023-05-10T00:13:20;35.97;34.67;40.02;;
67300;Laerm;57658;51.436;5.980;2023-05-10T00:13:31;76.09;34.33;83.56;;
67300;Laerm;57658;51.436;5.980;2023-05-10T00:13:41;72.95;52.06;81.74;;
67300;Laerm;57658;51.436;5.980;2023-05-10T00:13:51;56.30;50.66;58.69;;
67300;Laerm;57658;51.436;5.980;2023-05-10T00:14:02;56.45;50.78;58.97;;
67300;Laerm;57658;51.436;5.980;2023-05-10T00:14:12;57.31;53.03;60.05;;
67300;Laerm;57658;51.436;5.980;2023-05-10T00:14:22;81.02;56.87;87.89;;
67300;Laerm;57658;51.436;5.980;2023-05-10T00:14:32;85.49;79.98;91.75;;
67300;Laerm;57658;51.436;5.980;2023-05-10T00:14:43;82.30;77.74;87.48;;
67300;Laerm;57658;51.436;5.980;2023-05-10T00:14:53;68.87;46.42;82.02;;
67300;Laerm;57658;51.436;5.980;2023-05-10T00:15:04;43.53;38.57;47.99;;
67300;Laerm;57658;51.436;5.980;2023-05-10T00:15:14;37.38;34.58;41.86;;
67300;Laerm;57658;51.436;5.980;2023-05-10T00:15:24;36.07;33.69;51.43;;
67300;Laerm;57658;51.436;5.980;2023-05-10T00:15:35;34.68;33.19;39.08;;
67300;Laerm;57658;51.436;5.980;2023-05-10T00:15:45;34.91;33.28;40.72;;
67300;Laerm;57658;51.436;5.980;2023-05-10T00:15:55;35.08;33.35;44.52;;
67300;Laerm;57658;51.436;5.980;2023-05-10T00:16:06;34.81;33.39;39.95;;
67300;Laerm;57658;51.436;5.980;2023-05-10T00:16:16;34.50;33.02;39.25;;
67300;Laerm;57658;51.436;5.980;2023-05-10T00:16:26;35.18;33.66;38.61;;
67300;Laerm;57658;51.436;5.980;2023-05-10T00:16:36;35.01;33.69;42.87;;
67300;Laerm;57658;51.436;5.980;2023-05-10T00:16:47;35.01;33.27;43.80;;
67300;Laerm;57658;51.436;5.980;2023-05-10T00:16:57;35.26;33.81;46.23;;
67300;Laerm;57658;51.436;5.980;2023-05-10T00:17:07;35.38;33.47;40.34;;
67300;Laerm;57658;51.436;5.980;2023-05-10T00:17:18;75.28;34.80;82.78;;
67300;Laerm;57658;51.436;5.980;2023-05-10T00:17:28;73.87;49.33;82.53;;
67300;Laerm;57658;51.436;5.980;2023-05-10T00:17:38;56.46;50.56;58.69;;
67300;Laerm;57658;51.436;5.980;2023-05-10T00:17:48;56.02;51.90;58.04;;
67300;Laerm;57658;51.436;5.980;2023-05-10T00:17:59;56.69;52.98;58.58;;
67300;Laerm;57658;51.436;5.980;2023-05-10T00:18:09;79.76;55.71;89.90;;
67300;Laerm;57658;51.436;5.980;2023-05-10T00:18:19;82.35;77.62;87.57;;
67300;Laerm;57658;51.436;5.980;2023-05-10T00:18:29;80.40;63.17;86.41;;
67300;Laerm;57658;51.436;5.980;2023-05-10T00:18:40;57.70;43.37;65.71;;
67300;Laerm;57658;51.436;5.980;2023-05-10T00:18:50;41.69;37.04;47.39;;
67300;Laerm;57658;51.436;5.980;2023-05-10T00:19:00;36.70;34.63;39.56;;
67300;Laerm;57658;51.436;5.980;2023-05-10T00:19:11;35.18;33.62;39.77;;
67300;Laerm;57658;51.436;5.980;2023-05-10T00:19:21;35.01;33.37;38.91;;
67300;Laerm;57658;51.436;5.980;2023-05-10T00:19:31;35.33;33.65;38.66;;
67300;Laerm;57658;51.436;5.980;2023-05-10T00:19:42;35.23;33.48;39.73;;
67300;Laerm;57658;51.436;5.980;2023-05-10T00:19:52;34.67;33.01;41.69;;
67300;Laerm;57658;51.436;5.980;2023-05-10T00:20:02;34.44;32.83;36.25;;
67300;Laerm;57658;51.436;5.980;2023-05-10T00:20:14;34.73;33.10;40.81;;
67300;Laerm;57658;51.436;5.980;2023-05-10T00:20:25;35.23;33.50;41.95;;
67300;Laerm;57658;51.436;5.980;2023-05-10T00:20:35;36.08;34.60;38.34;;
67300;Laerm;57658;51.436;5.980;2023-05-10T00:20:45;76.00;35.08;83.10;;
67300;Laerm;57658;51.436;5.980;2023-05-10T00:20:56;73.51;49.40;82.70;;
67300;Laerm;57658;51.436;5.980;2023-05-10T00:21:06;56.27;52.63;58.66;;
67300;Laerm;57658;51.436;5.980;2023-05-10T00:21:16;56.37;52.49;58.69;;
67300;Laerm;57658;51.436;5.980;2023-05-10T00:21:26;68.68;52.98;81.36;;
67300;Laerm;57658;51.436;5.980;2023-05-10T00:21:38;88.32;80.67;97.48;;
67300;Laerm;57658;51.436;5.980;2023-05-10T00:21:48;87.44;63.51;95.50;;
67300;Laerm;57658;51.436;5.980;2023-05-10T00:21:59;58.65;47.90;65.73;;
67300;Laerm;57658;51.436;5.980;2023-05-10T00:22:09;45.29;38.99;51.11;;
67300;Laerm;57658;51.436;5.980;2023-05-10T00:22:20;37.74;34.05;42.49;;
67300;Laerm;57658;51.436;5.980;2023-05-10T00:22:31;34.27;32.66;37.58;;
67300;Laerm;57658;51.436;5.980;2023-05-10T00:22:41;33.87;32.58;39.98;;
67300;Laerm;57658;51.436;5.980;2023-05-10T00:22:52;33.97;32.63;38.99;;
67300;Laerm;57658;51.436;5.980;2023-05-10T00:23:02;34.31;32.94;41.63;;
67300;Laerm;57658;51.436;5.980;2023-05-10T00:23:12;34.04;32.58;39.26;;
67300;Laerm;57658;51.436;5.980;2023-05-10T00:23:22;34.54;32.63;37.26;;
67300;Laerm;57658;51.436;5.980;2023-05-10T00:23:33;34.11;32.88;38.40;;
67300;Laerm;57658;51.436;5.980;2023-05-10T00:23:43;34.50;33.01;40.59;;
67300;Laerm;57658;51.436;5.980;2023-05-10T00:23:53;34.77;33.65;39.83;;
67300;Laerm;57658;51.436;5.980;2023-05-10T00:24:04;34.89;33.49;39.79;;
67300;Laerm;57658;51.436;5.980;2023-05-10T00:24:14;34.38;33.18;39.47;;
67300;Laerm;57658;51.436;5.980;2023-05-10T00:24:25;33.99;32.59;37.49;;
67300;Laerm;57658;51.436;5.980;2023-05-10T00:24:35;34.11;32.69;39.77;;
67300;Laerm;57658;51.436;5.980;2023-05-10T00:24:45;75.15;32.98;82.46;;
67300;Laerm;57658;51.436;5.980;2023-05-10T00:24:55;73.60;51.66;82.00;;
67300;Laerm;57658;51.436;5.980;2023-05-10T00:25:06;56.52;52.26;58.94;;
67300;Laerm;57658;51.436;5.980;2023-05-10T00:25:16;56.84;52.60;59.71;;
67300;Laerm;57658;51.436;5.980;2023-05-10T00:25:27;58.48;52.33;66.78;;
67300;Laerm;57658;51.436;5.980;2023-05-10T00:25:37;80.43;65.75;84.95;;
67300;Laerm;57658;51.436;5.980;2023-05-10T00:25:47;81.22;77.91;84.09;;
67300;Laerm;57658;51.436;5.980;2023-05-10T00:25:57;71.92;52.55;82.29;;
67300;Laerm;57658;51.436;5.980;2023-05-10T00:26:08;57.45;49.83;64.92;;
67300;Laerm;57658;51.436;5.980;2023-05-10T00:26:18;57.93;48.02;63.88;;
67300;Laerm;57658;51.436;5.980;2023-05-10T00:26:29;50.15;46.99;52.86;;
67300;Laerm;57658;51.436;5.980;2023-05-10T00:26:39;43.81;39.05;49.89;;
67300;Laerm;57658;51.436;5.980;2023-05-10T00:26:49;41.40;39.32;48.13;;
67300;Laerm;57658;51.436;5.980;2023-05-10T00:27:00;38.46;36.11;41.21;;
67300;Laerm;57658;51.436;5.980;2023-05-10T00:27:10;38.46;36.31;42.39;;
67300;Laerm;57658;51.436;5.980;2023-05-10T00:27:20;37.54;35.84;40.88;;
67300;Laerm;57658;51.436;5.980;2023-05-10T00:27:31;36.75;34.21;47.67;;
67300;Laerm;57658;51.436;5.980;2023-05-10T00:27:41;35.92;34.09;40.53;;
67300;Laerm;57658;51.436;5.980;2023-05-10T00:27:51;35.56;34.00;41.79;;
67300;Laerm;57658;51.436;5.980;2023-05-10T00:28:02;35.94;34.32;40.56;;
67300;Laerm;57658;51.436;5.980;2023-05-10T00:28:12;34.91;32.82;40.97;;
67300;Laerm;57658;51.436;5.980;2023-05-10T00:28:22;35.17;33.40;39.83;;
67300;Laerm;57658;51.436;5.980;2023-05-10T00:28:33;34.86;33.45;41.53;;
67300;Laerm;57658;51.436;5.980;2023-05-10T00:28:43;34.30;33.19;37.25;;
67300;Laerm;57658;51.436;5.980;2023-05-10T00:28:53;34.53;33.36;38.64;;
67300;Laerm;57658;51.436;5.980;2023-05-10T00:29:04;34.69;33.05;36.36;;
67300;Laerm;57658;51.436;5.980;2023-05-10T00:29:14;34.54;32.88;39.76;;
67300;Laerm;57658;51.436;5.980;2023-05-10T00:29:24;34.21;32.84;37.30;;
67300;Laerm;57658;51.436;5.980;2023-05-10T00:29:35;34.44;33.12;42.58;;
67300;Laerm;57658;51.436;5.980;2023-05-10T00:29:45;35.18;33.18;40.96;;
67300;Laerm;57658;51.436;5.980;2023-05-10T00:29:55;35.78;34.00;37.60;;
67300;Laerm;57658;51.436;5.980;2023-05-10T00:30:06;36.13;34.51;39.67;;
67300;Laerm;57658;51.436;5.980;2023-05-10T00:30:16;36.05;34.08;44.90;;
67300;Laerm;57658;51.436;5.980;2023-05-10T00:30:27;35.14;33.80;45.21;;
67300;Laerm;57658;51.436;5.980;2023-05-10T00:30:37;35.47;33.85;41.02;;
67300;Laerm;57658;51.436;5.980;2023-05-10T00:30:47;75.68;34.85;82.88;;
67300;Laerm;57658;51.436;5.980;2023-05-10T00:30:57;73.12;49.92;81.58;;
67300;Laerm;57658;51.436;5.980;2023-05-10T00:31:08;57.92;51.10;69.43;;
67300;Laerm;57658;51.436;5.980;2023-05-10T00:31:18;56.20;51.61;58.76;;
67300;Laerm;57658;51.436;5.980;2023-05-10T00:31:28;77.95;54.12;88.73;;
67300;Laerm;57658;51.436;5.980;2023-05-10T00:31:38;85.82;80.89;91.52;;
67300;Laerm;57658;51.436;5.980;2023-05-10T00:31:49;87.92;83.56;92.85;;
67300;Laerm;57658;51.436;5.980;2023-05-10T00:31:59;80.26;57.46;91.90;;
67300;Laerm;57658;51.436;5.980;2023-05-10T00:32:09;52.60;44.75;61.21;;
67300;Laerm;57658;51.436;5.980;2023-05-10T00:32:20;43.51;37.23;47.50;;
67300;Laerm;57658;51.436;5.980;2023-05-10T00:32:30;36.99;34.18;40.92;;
67300;Laerm;57658;51.436;5.980;2023-05-10T00:32:40;34.67;32.97;47.82;;
67300;Laerm;57658;51.436;5.980;2023-05-10T00:32:51;34.02;32.72;36.47;;
67300;Laerm;57658;51.436;5.980;2023-05-10T00:33:01;33.81;32.47;36.93;;
67300;Laerm;57658;51.436;5.980;2023-05-10T00:33:12;35.62;32.40;56.12;;
67300;Laerm;57658;51.436;5.980;2023-05-10T00:33:23;33.40;31.62;37.18;;
67300;Laerm;57658;51.436;5.980;2023-05-10T00:33:33;33.42;32.05;36.45;;
67300;Laerm;57658;51.436;5.980;2023-05-10T00:33:43;33.52;32.01;34.92;;
67300;Laerm;57658;51.436;5.980;2023-05-10T00:33:54;34.68;31.81;52.25;;
67300;Laerm;57658;51.436;5.980;2023-05-10T00:34:04;34.69;32.18;50.63;;
67300;Laerm;57658;51.436;5.980;2023-05-10T00:34:14;35.17;32.62;53.17;;
67300;Laerm;57658;51.436;5.980;2023-05-10T00:34:25;34.25;32.73;43.32;;
67300;Laerm;57658;51.436;5.980;2023-05-10T00:34:35;34.69;33.06;40.81;;
67300;Laerm;57658;51.436;5.980;2023-05-10T00:34:46;34.31;33.03;39.85;;
67300;Laerm;57658;51.436;5.980;2023-05-10T00:34:56;34.06;33.05;38.75;;
67300;Laerm;57658;51.436;5.980;2023-05-10T00:35:06;34.53;33.34;38.51;;
67300;Laerm;57658;51.436;5.980;2023-05-10T00:35:17;34.26;33.04;37.47;;
67300;Laerm;57658;51.436;5.980;2023-05-10T00:35:27;34.96;32.79;51.45;;
67300;Laerm;57658;51.436;5.980;2023-05-10T00:35:38;34.03;32.72;38.46;;
67300;Laerm;57658;51.436;5.980;2023-05-10T00:35:48;34.06;32.39;41.85;;
67300;Laerm;57658;51.436;5.980;2023-05-10T00:35:58;34.05;32.73;40.28;;
67300;Laerm;57658;51.436;5.980;2023-05-10T00:36:09;34.58;32.96;46.06;;
67300;Laerm;57658;51.436;5.980;2023-05-10T00:36:19;34.95;33.22;40.48;;
67300;Laerm;57658;51.436;5.980;2023-05-10T00:36:29;35.24;33.14;43.26;;
67300;Laerm;57658;51.436;5.980;2023-05-10T00:36:41;36.39;32.82;54.07;;
67300;Laerm;57658;51.436;5.980;2023-05-10T00:36:51;35.66;32.34;53.17;;
67300;Laerm;57658;51.436;5.980;2023-05-10T00:37:01;33.96;32.53;40.75;;
67300;Laerm;57658;51.436;5.980;2023-05-10T00:37:12;34.51;32.46;38.58;;
67300;Laerm;57658;51.436;5.980;2023-05-10T00:37:22;34.77;32.86;51.20;;
67300;Laerm;57658;51.436;5.980;2023-05-10T00:37:33;34.88;32.95;42.06;;
67300;Laerm;57658;51.436;5.980;2023-05-10T00:37:43;35.56;32.98;40.74;;
67300;Laerm;57658;51.436;5.980;2023-05-10T00:37:53;41.50;37.09;47.45;;
67300;Laerm;57658;51.436;5.980;2023-05-10T00:38:04;53.41;44.83;59.16;;
67300;Laerm;57658;51.436;5.980;2023-05-10T00:38:14;65.63;56.95;70.42;;
67300;Laerm;57658;51.436;5.980;2023-05-10T00:38:24;62.27;57.40;67.94;;
67300;Laerm;57658;51.436;5.980;2023-05-10T00:38:34;56.36;47.63;62.71;;
67300;Laerm;57658;51.436;5.980;2023-05-10T00:38:45;48.85;43.46;54.28;;
67300;Laerm;57658;51.436;5.980;2023-05-10T00:38:55;41.42;37.91;43.78;;
67300;Laerm;57658;51.436;5.980;2023-05-10T00:39:06;38.20;36.52;41.32;;
67300;Laerm;57658;51.436;5.980;2023-05-10T00:39:16;37.23;34.72;44.05;;
67300;Laerm;57658;51.436;5.980;2023-05-10T00:39:26;35.72;33.44;39.90;;
67300;Laerm;57658;51.436;5.980;2023-05-10T00:39:38;35.50;33.14;38.29;;
67300;Laerm;57658;51.436;5.980;2023-05-10T00:39:48;35.52;33.84;45.24;;
67300;Laerm;57658;51.436;5.980;2023-05-10T00:39:59;34.99;34.01;38.95;;
67300;Laerm;57658;51.436;5.980;2023-05-10T00:40:09;34.98;33.56;39.86;;
67300;Laerm;57658;51.436;5.980;2023-05-10T00:40:20;34.86;33.12;48.54;;
67300;Laerm;57658;51.436;5.980;2023-05-10T00:40:30;34.79;33.31;39.88;;
67300;Laerm;57658;51.436;5.980;2023-05-10T00:40:41;34.16;32.34;40.44;;
67300;Laerm;57658;51.436;5.980;2023-05-10T00:40:51;33.93;32.26;43.93;;
67300;Laerm;57658;51.436;5.980;2023-05-10T00:41:01;33.97;32.17;37.64;;
67300;Laerm;57658;51.436;5.980;2023-05-10T00:41:12;34.16;32.54;37.72;;
67300;Laerm;57658;51.436;5.980;2023-05-10T00:41:22;34.07;32.87;39.14;;
67300;Laerm;57658;51.436;5.980;2023-05-10T00:41:32;34.13;32.88;39.51;;
67300;Laerm;57658;51.436;5.980;2023-05-10T00:41:43;34.01;32.73;38.33;;
67300;Laerm;57658;51.436;5.980;2023-05-10T00:41:53;34.21;32.74;40.91;;
67300;Laerm;57658;51.436;5.980;2023-05-10T00:42:03;33.87;32.84;38.41;;
67300;Laerm;57658;51.436;5.980;2023-05-10T00:42:14;33.62;32.68;37.05;;
67300;Laerm;57658;51.436;5.980;2023-05-10T00:42:24;33.93;32.27;46.47;;
67300;Laerm;57658;51.436;5.980;2023-05-10T00:42:35;34.50;33.13;37.82;;
67300;Laerm;57658;51.436;5.980;2023-05-10T00:42:45;34.15;32.60;37.69;;
67300;Laerm;57658;51.436;5.980;2023-05-10T00:42:56;33.82;32.47;37.60;;
67300;Laerm;57658;51.436;5.980;2023-05-10T00:43:06;33.90;32.65;37.91;;
67300;Laerm;57658;51.436;5.980;2023-05-10T00:43:16;33.66;32.17;40.14;;
67300;Laerm;57658;51.436;5.980;2023-05-10T00:43:27;33.95;32.54;37.21;;
67300;Laerm;57658;51.436;5.980;2023-05-10T00:43:37;33.55;31.81;35.03;;
67300;Laerm;57658;51.436;5.980;2023-05-10T00:43:47;33.48;32.13;38.52;;
67300;Laerm;57658;51.436;5.980;2023-05-10T00:43:58;33.30;31.76;36.33;;
67300;Laerm;57658;51.436;5.980;2023-05-10T00:44:08;33.87;32.61;38.14;;
67300;Laerm;57658;51.436;5.980;2023-05-10T00:44:19;34.23;33.03;38.31;;
67300;Laerm;57658;51.436;5.980;2023-05-10T00:44:29;70.95;33.09;82.62;;
67300;Laerm;57658;51.436;5.980;2023-05-10T00:44:40;75.55;51.70;82.49;;
67300;Laerm;57658;51.436;5.980;2023-05-10T00:44:51;57.27;50.96;60.42;;
67300;Laerm;57658;51.436;5.980;2023-05-10T00:45:01;56.74;51.88;59.19;;
67300;Laerm;57658;51.436;5.980;2023-05-10T00:45:11;56.73;51.97;59.19;;
67300;Laerm;57658;51.436;5.980;2023-05-10T00:45:22;75.72;54.06;83.85;;
67300;Laerm;57658;51.436;5.980;2023-05-10T00:45:32;81.53;77.15;85.79;;
67300;Laerm;57658;51.436;5.980;2023-05-10T00:45:43;84.81;66.65;93.26;;
67300;Laerm;57658;51.436;5.980;2023-05-10T00:45:53;61.55;50.59;69.24;;
67300;Laerm;57658;51.436;5.980;2023-05-10T00:46:04;49.26;43.16;53.79;;
67300;Laerm;57658;51.436;5.980;2023-05-10T00:46:15;41.56;38.57;45.46;;
67300;Laerm;57658;51.436;5.980;2023-05-10T00:46:25;40.60;37.76;44.12;;
67300;Laerm;57658;51.436;5.980;2023-05-10T00:46:36;39.63;37.50;44.37;;
67300;Laerm;57658;51.436;5.980;2023-05-10T00:46:46;39.75;37.82;42.53;;
67300;Laerm;57658;51.436;5.980;2023-05-10T00:46:57;39.75;37.30;42.74;;
67300;Laerm;57658;51.436;5.980;2023-05-10T00:47:08;38.68;36.47;41.79;;
67300;Laerm;57658;51.436;5.980;2023-05-10T00:47:19;36.75;34.94;39.35;;
67300;Laerm;57658;51.436;5.980;2023-05-10T00:47:29;36.42;34.30;40.65;;
67300;Laerm;57658;51.436;5.980;2023-05-10T00:47:40;35.20;33.43;42.55;;
67300;Laerm;57658;51.436;5.980;2023-05-10T00:47:51;34.90;33.37;36.33;;
67300;Laerm;57658;51.436;5.980;2023-05-10T00:48:05;35.00;33.14;40.08;;
67300;Laerm;57658;51.436;5.980;2023-05-10T00:48:15;35.08;33.18;38.31;;
67300;Laerm;57658;51.436;5.980;2023-05-10T00:48:25;34.28;32.26;39.46;;
67300;Laerm;57658;51.436;5.980;2023-05-10T00:48:36;34.41;32.95;37.58;;
67300;Laerm;57658;51.436;5.980;2023-05-10T00:48:46;34.94;33.05;40.00;;
67300;Laerm;57658;51.436;5.980;2023-05-10T00:48:57;34.46;33.10;37.93;;
67300;Laerm;57658;51.436;5.980;2023-05-10T00:49:07;34.57;32.43;40.72;;
67300;Laerm;57658;51.436;5.980;2023-05-10T00:49:17;34.02;32.34;36.51;;
67300;Laerm;57658;51.436;5.980;2023-05-10T00:49:28;34.00;32.30;36.16;;
67300;Laerm;57658;51.436;5.980;2023-05-10T00:49:38;34.10;32.55;37.22;;
67300;Laerm;57658;51.436;5.980;2023-05-10T00:49:49;34.22;32.85;36.85;;
67300;Laerm;57658;51.436;5.980;2023-05-10T00:49:59;34.08;32.98;40.11;;
67300;Laerm;57658;51.436;5.980;2023-05-10T00:50:10;33.85;32.33;38.19;;
67300;Laerm;57658;51.436;5.980;2023-05-10T00:50:21;33.86;32.56;35.45;;
67300;Laerm;57658;51.436;5.980;2023-05-10T00:50:32;34.17;32.79;38.46;;
67300;Laerm;57658;51.436;5.980;2023-05-10T00:50:42;34.05;32.58;40.11;;
67300;Laerm;57658;51.436;5.980;2023-05-10T00:50:53;33.66;32.35;38.93;;
67300;Laerm;57658;51.436;5.980;2023-05-10T00:51:04;71.17;32.16;82.44;;
67300;Laerm;57658;51.436;5.980;2023-05-10T00:51:14;75.85;51.81;82.50;;
67300;Laerm;57658;51.436;5.980;2023-05-10T00:51:25;55.96;51.58;58.39;;
67300;Laerm;57658;51.436;5.980;2023-05-10T00:51:35;55.43;51.21;57.02;;
67300;Laerm;57658;51.436;5.980;2023-05-10T00:51:46;56.36;51.72;58.53;;
67300;Laerm;57658;51.436;5.980;2023-05-10T00:51:57;83.41;56.66;88.28;;
67300;Laerm;57658;51.436;5.980;2023-05-10T00:52:07;86.38;82.29;92.36;;
67300;Laerm;57658;51.436;5.980;2023-05-10T00:52:18;80.12;59.92;87.64;;
67300;Laerm;57658;51.436;5.980;2023-05-10T00:52:28;54.81;47.17;63.16;;
67300;Laerm;57658;51.436;5.980;2023-05-10T00:52:39;45.30;41.22;48.98;;
67300;Laerm;57658;51.436;5.980;2023-05-10T00:52:49;42.71;40.68;44.52;;
67300;Laerm;57658;51.436;5.980;2023-05-10T00:53:00;40.42;38.63;42.83;;
67300;Laerm;57658;51.436;5.980;2023-05-10T00:53:11;41.69;39.44;44.33;;
67300;Laerm;57658;51.436;5.980;2023-05-10T00:53:22;39.28;36.51;43.27;;
67300;Laerm;57658;51.436;5.980;2023-05-10T00:53:32;39.02;36.13;41.78;;
67300;Laerm;57658;51.436;5.980;2023-05-10T00:53:44;39.43;36.85;41.93;;
67300;Laerm;57658;51.436;5.980;2023-05-10T00:53:55;37.80;34.74;42.09;;
67300;Laerm;57658;51.436;5.980;2023-05-10T00:54:06;36.13;34.12;45.02;;
67300;Laerm;57658;51.436;5.980;2023-05-10T00:54:16;35.07;32.91;42.31;;
67300;Laerm;57658;51.436;5.980;2023-05-10T00:54:27;34.89;33.04;42.27;;
67300;Laerm;57658;51.436;5.980;2023-05-10T00:54:37;34.81;32.73;37.25;;
67300;Laerm;57658;51.436;5.980;2023-05-10T00:54:48;34.89;33.61;39.26;;
67300;Laerm;57658;51.436;5.980;2023-05-10T00:54:58;35.76;33.76;40.72;;
67300;Laerm;57658;51.436;5.980;2023-05-10T00:55:09;37.75;34.14;41.82;;
67300;Laerm;57658;51.436;5.980;2023-05-10T00:55:21;39.41;36.00;48.56;;
67300;Laerm;57658;51.436;5.980;2023-05-10T00:55:31;36.91;35.28;43.34;;
67300;Laerm;57658;51.436;5.980;2023-05-10T00:55:42;36.68;35.45;38.62;;
67300;Laerm;57658;51.436;5.980;2023-05-10T00:55:52;37.66;35.40;44.63;;
67300;Laerm;57658;51.436;5.980;2023-05-10T00:56:03;55.98;37.67;65.31;;
67300;Laerm;57658;51.436;5.980;2023-05-10T00:56:13;66.30;54.57;71.24;;
67300;Laerm;57658;51.436;5.980;2023-05-10T00:56:24;49.77;44.86;56.00;;
67300;Laerm;57658;51.436;5.980;2023-05-10T00:56:35;43.46;41.17;46.54;;
67300;Laerm;57658;51.436;5.980;2023-05-10T00:56:45;40.36;37.04;42.99;;
67300;Laerm;57658;51.436;5.980;2023-05-10T00:56:58;37.32;35.25;39.34;;
67300;Laerm;57658;51.436;5.980;2023-05-10T00:57:09;36.50;34.75;39.31;;
67300;Laerm;57658;51.436;5.980;2023-05-10T00:57:19;35.88;33.94;38.62;;
67300;Laerm;57658;51.436;5.980;2023-05-10T00:57:29;35.22;33.78;38.13;;
67300;Laerm;57658;51.436;5.980;2023-05-10T00:57:40;34.18;32.23;37.45;;
67300;Laerm;57658;51.436;5.980;2023-05-10T00:57:51;33.95;32.85;38.37;;
67300;Laerm;57658;51.436;5.980;2023-05-10T00:58:02;34.62;33.37;37.98;;
67300;Laerm;57658;51.436;5.980;2023-05-10T00:58:12;34.95;33.45;36.69;;
67300;Laerm;57658;51.436;5.980;2023-05-10T00:58:23;35.35;33.70;38.62;;